KMTC/MTC METAR and TAF weather

Enter ICAO airport designator
Station Type Date Time Source
KMTC METAR 2022/01/26 12:56 UTC NOAA

KMTC 261256Z 26008KT 10SM CLR M15/M17 A3036 RMK AO2A SLP299 T11481167 $


Station Type Date Time Source
KMTC Decoded METAR 2022/01/26 12:56 UTC NOAA

Selfridge Air National Guard Base, MI, United States (KMTC) 42-37N 082-50W
Jan 26, 2022 - 07:56 AM EST / 2022.01.26 1256 UTC
Wind: from the W (260 degrees) at 9 MPH (8 KT):0
Visibility: 10 mile(s):0
Sky conditions: clear
Temperature: 5.4 F (-14.8 C)
Windchill: -7 F (-22 C):2
Dew Point: 1.9 F (-16.7 C)
Relative Humidity: 85%
Pressure (altimeter): 30.36 in. Hg (1028 hPa)
ob: KMTC 261256Z 26008KT 10SM CLR M15/M17 A3036 RMK AO2A SLP299 T11481167
cycle: 13

Station Type Date Time Source
KMTC TAF 2022/01/26 09:09 UTC NOAA

TAF TAF KMTC 260900Z 2609/2715 VRB06KT 9999 SCT020 OVC045 QNH3020INS
BECMG 2609/2610 29006KT 9999 SCT050 QNH3025INS
BECMG 2612/2613 23010G15KT 9999 FEW050 BKN080 QNH3027INS TXM09/2620Z TNM15/2613Z LAST NO
AMDS AFT 2609 NEXT 2611

Example: see airport list